sensor_id;sensor_type;location;lat;lon;timestamp;temperature;humidity
22526;DHT22;11429;50.842;4.386;2023-12-20T00:01:49;6.80;99.90
22526;DHT22;11429;50.842;4.386;2023-12-20T00:04:15;6.80;99.90
22526;DHT22;11429;50.842;4.386;2023-12-20T00:06:41;6.80;99.90
22526;DHT22;11429;50.842;4.386;2023-12-20T00:09:06;6.80;99.90
22526;DHT22;11429;50.842;4.386;2023-12-20T00:11:32;6.80;99.90
22526;DHT22;11429;50.842;4.386;2023-12-20T00:13:58;6.90;99.90
22526;DHT22;11429;50.842;4.386;2023-12-20T00:16:24;7.00;99.90
22526;DHT22;11429;50.842;4.386;2023-12-20T00:18:49;7.10;99.90
22526;DHT22;11429;50.842;4.386;2023-12-20T00:21:17;7.10;99.90
22526;DHT22;11429;50.842;4.386;2023-12-20T00:23:42;7.10;99.90
22526;DHT22;11429;50.842;4.386;2023-12-20T00:26:08;7.10;99.90
22526;DHT22;11429;50.842;4.386;2023-12-20T00:28:34;7.10;99.90
22526;DHT22;11429;50.842;4.386;2023-12-20T00:31:00;7.10;99.90
22526;DHT22;11429;50.842;4.386;2023-12-20T00:33:25;7.10;99.90
22526;DHT22;11429;50.842;4.386;2023-12-20T00:35:51;7.20;99.90
22526;DHT22;11429;50.842;4.386;2023-12-20T00:38:17;7.20;99.90
22526;DHT22;11429;50.842;4.386;2023-12-20T00:40:43;7.10;99.90
22526;DHT22;11429;50.842;4.386;2023-12-20T00:43:08;7.00;99.90
22526;DHT22;11429;50.842;4.386;2023-12-20T00:45:34;7.00;99.90
22526;DHT22;11429;50.842;4.386;2023-12-20T00:48:00;7.00;99.90
22526;DHT22;11429;50.842;4.386;2023-12-20T00:50:25;7.00;99.90
22526;DHT22;11429;50.842;4.386;2023-12-20T00:52:52;7.10;99.90
22526;DHT22;11429;50.842;4.386;2023-12-20T00:55:18;6.90;99.90
22526;DHT22;11429;50.842;4.386;2023-12-20T00:57:43;6.80;99.90
22526;DHT22;11429;50.842;4.386;2023-12-20T01:00:09;6.80;99.90
22526;DHT22;11429;50.842;4.386;2023-12-20T01:02:35;6.80;99.90
22526;DHT22;11429;50.842;4.386;2023-12-20T01:05:01;6.70;99.90
22526;DHT22;11429;50.842;4.386;2023-12-20T01:07:28;6.70;99.90
22526;DHT22;11429;50.842;4.386;2023-12-20T01:09:54;6.70;99.90
22526;DHT22;11429;50.842;4.386;2023-12-20T01:12:19;6.60;99.90
22526;DHT22;11429;50.842;4.386;2023-12-20T01:14:46;6.70;99.90
22526;DHT22;11429;50.842;4.386;2023-12-20T01:17:12;6.70;99.90
22526;DHT22;11429;50.842;4.386;2023-12-20T01:19:38;6.60;99.90
22526;DHT22;11429;50.842;4.386;2023-12-20T01:22:04;6.50;99.90
22526;DHT22;11429;50.842;4.386;2023-12-20T01:24:29;6.60;99.90
22526;DHT22;11429;50.842;4.386;2023-12-20T01:26:55;6.50;99.90
22526;DHT22;11429;50.842;4.386;2023-12-20T01:29:21;6.50;99.90
22526;DHT22;11429;50.842;4.386;2023-12-20T01:31:47;6.50;99.90
22526;DHT22;11429;50.842;4.386;2023-12-20T01:34:13;6.50;99.90
22526;DHT22;11429;50.842;4.386;2023-12-20T01:36:39;6.40;99.90
22526;DHT22;11429;50.842;4.386;2023-12-20T01:39:04;6.40;99.90
22526;DHT22;11429;50.842;4.386;2023-12-20T01:41:30;6.50;99.90
22526;DHT22;11429;50.842;4.386;2023-12-20T01:43:56;6.50;99.90
22526;DHT22;11429;50.842;4.386;2023-12-20T01:46:22;6.50;99.90
22526;DHT22;11429;50.842;4.386;2023-12-20T01:48:48;6.40;99.90
22526;DHT22;11429;50.842;4.386;2023-12-20T01:51:14;6.50;99.90
22526;DHT22;11429;50.842;4.386;2023-12-20T01:53:41;6.50;99.90
22526;DHT22;11429;50.842;4.386;2023-12-20T01:56:08;6.60;99.90
22526;DHT22;11429;50.842;4.386;2023-12-20T01:58:34;6.70;99.90
22526;DHT22;11429;50.842;4.386;2023-12-20T02:01:02;6.60;99.90
22526;DHT22;11429;50.842;4.386;2023-12-20T02:03:28;6.60;99.90
22526;DHT22;11429;50.842;4.386;2023-12-20T02:05:56;6.70;99.90
22526;DHT22;11429;50.842;4.386;2023-12-20T02:08:24;6.80;99.90
22526;DHT22;11429;50.842;4.386;2023-12-20T02:10:49;7.00;99.90
22526;DHT22;11429;50.842;4.386;2023-12-20T02:13:15;6.90;99.90
22526;DHT22;11429;50.842;4.386;2023-12-20T02:15:41;6.90;99.90
22526;DHT22;11429;50.842;4.386;2023-12-20T02:18:09;6.80;99.90
22526;DHT22;11429;50.842;4.386;2023-12-20T02:20:35;6.60;99.90
22526;DHT22;11429;50.842;4.386;2023-12-20T02:23:00;6.50;99.90
22526;DHT22;11429;50.842;4.386;2023-12-20T02:25:26;6.40;99.90
22526;DHT22;11429;50.842;4.386;2023-12-20T02:27:52;6.40;99.90
22526;DHT22;11429;50.842;4.386;2023-12-20T02:30:19;6.40;99.90
22526;DHT22;11429;50.842;4.386;2023-12-20T02:32:45;6.40;99.90
22526;DHT22;11429;50.842;4.386;2023-12-20T02:35:11;6.40;99.90
22526;DHT22;11429;50.842;4.386;2023-12-20T02:37:37;6.50;99.90
22526;DHT22;11429;50.842;4.386;2023-12-20T02:40:03;6.50;99.90
22526;DHT22;11429;50.842;4.386;2023-12-20T02:42:30;6.40;99.90
22526;DHT22;11429;50.842;4.386;2023-12-20T02:44:55;6.40;99.90
22526;DHT22;11429;50.842;4.386;2023-12-20T02:47:21;6.40;99.90
22526;DHT22;11429;50.842;4.386;2023-12-20T02:49:47;6.40;99.90
22526;DHT22;11429;50.842;4.386;2023-12-20T02:52:13;6.30;99.90
22526;DHT22;11429;50.842;4.386;2023-12-20T02:54:39;6.50;99.90
22526;DHT22;11429;50.842;4.386;2023-12-20T02:57:04;6.50;99.90
22526;DHT22;11429;50.842;4.386;2023-12-20T02:59:30;6.40;99.90
22526;DHT22;11429;50.842;4.386;2023-12-20T03:01:56;6.50;99.90
22526;DHT22;11429;50.842;4.386;2023-12-20T03:04:21;6.50;99.90
22526;DHT22;11429;50.842;4.386;2023-12-20T03:06:47;6.40;99.90
22526;DHT22;11429;50.842;4.386;2023-12-20T03:09:13;6.40;99.90
22526;DHT22;11429;50.842;4.386;2023-12-20T03:11:39;6.50;99.90
22526;DHT22;11429;50.842;4.386;2023-12-20T03:14:04;6.50;99.90
22526;DHT22;11429;50.842;4.386;2023-12-20T03:16:30;6.60;99.90
22526;DHT22;11429;50.842;4.386;2023-12-20T03:18:58;6.60;99.90
22526;DHT22;11429;50.842;4.386;2023-12-20T03:21:24;6.70;99.90
22526;DHT22;11429;50.842;4.386;2023-12-20T03:23:50;6.60;99.90
22526;DHT22;11429;50.842;4.386;2023-12-20T03:26:15;6.90;99.90
22526;DHT22;11429;50.842;4.386;2023-12-20T03:28:41;6.80;99.90
22526;DHT22;11429;50.842;4.386;2023-12-20T03:31:07;6.70;99.90
22526;DHT22;11429;50.842;4.386;2023-12-20T03:33:34;6.60;99.90
22526;DHT22;11429;50.842;4.386;2023-12-20T03:36:00;6.60;99.90
22526;DHT22;11429;50.842;4.386;2023-12-20T03:38:26;6.70;99.90
22526;DHT22;11429;50.842;4.386;2023-12-20T03:40:51;6.90;99.90
22526;DHT22;11429;50.842;4.386;2023-12-20T03:43:17;6.80;99.90
22526;DHT22;11429;50.842;4.386;2023-12-20T03:45:43;6.80;99.90
22526;DHT22;11429;50.842;4.386;2023-12-20T03:48:09;7.00;99.90
22526;DHT22;11429;50.842;4.386;2023-12-20T03:50:35;7.00;99.90
22526;DHT22;11429;50.842;4.386;2023-12-20T03:53:01;6.80;99.90
22526;DHT22;11429;50.842;4.386;2023-12-20T03:55:27;6.80;99.90
22526;DHT22;11429;50.842;4.386;2023-12-20T03:57:53;6.90;99.90
22526;DHT22;11429;50.842;4.386;2023-12-20T04:00:19;6.80;99.90
22526;DHT22;11429;50.842;4.386;2023-12-20T04:02:45;6.90;99.90
22526;DHT22;11429;50.842;4.386;2023-12-20T04:05:11;7.10;99.90
22526;DHT22;11429;50.842;4.386;2023-12-20T04:07:37;7.10;99.90
22526;DHT22;11429;50.842;4.386;2023-12-20T04:10:04;6.90;99.90
22526;DHT22;11429;50.842;4.386;2023-12-20T04:12:30;6.90;99.90
22526;DHT22;11429;50.842;4.386;2023-12-20T04:14:59;6.90;99.90
22526;DHT22;11429;50.842;4.386;2023-12-20T04:17:25;6.90;99.90
22526;DHT22;11429;50.842;4.386;2023-12-20T04:19:51;7.00;99.90
22526;DHT22;11429;50.842;4.386;2023-12-20T04:22:18;7.00;99.90
22526;DHT22;11429;50.842;4.386;2023-12-20T04:24:44;7.00;99.90
22526;DHT22;11429;50.842;4.386;2023-12-20T04:27:12;7.00;99.90
22526;DHT22;11429;50.842;4.386;2023-12-20T04:29:38;6.80;99.90
22526;DHT22;11429;50.842;4.386;2023-12-20T04:32:05;6.80;99.90
22526;DHT22;11429;50.842;4.386;2023-12-20T04:34:30;6.70;99.90
22526;DHT22;11429;50.842;4.386;2023-12-20T04:36:56;6.90;99.90
22526;DHT22;11429;50.842;4.386;2023-12-20T04:39:25;6.90;99.90
22526;DHT22;11429;50.842;4.386;2023-12-20T04:41:50;6.80;99.90
22526;DHT22;11429;50.842;4.386;2023-12-20T04:44:16;6.80;99.90
22526;DHT22;11429;50.842;4.386;2023-12-20T04:46:42;6.90;99.90
22526;DHT22;11429;50.842;4.386;2023-12-20T04:49:08;6.80;99.90
22526;DHT22;11429;50.842;4.386;2023-12-20T04:51:34;6.80;99.90
22526;DHT22;11429;50.842;4.386;2023-12-20T04:54:01;6.70;99.90
22526;DHT22;11429;50.842;4.386;2023-12-20T04:56:29;6.70;99.90
22526;DHT22;11429;50.842;4.386;2023-12-20T04:58:54;6.80;99.90
22526;DHT22;11429;50.842;4.386;2023-12-20T05:01:20;6.80;99.90
22526;DHT22;11429;50.842;4.386;2023-12-20T05:03:47;6.90;99.90
22526;DHT22;11429;50.842;4.386;2023-12-20T05:06:12;7.00;99.90
22526;DHT22;11429;50.842;4.386;2023-12-20T05:08:38;7.00;99.90
22526;DHT22;11429;50.842;4.386;2023-12-20T05:11:04;6.90;99.90
22526;DHT22;11429;50.842;4.386;2023-12-20T05:13:30;6.80;99.90
22526;DHT22;11429;50.842;4.386;2023-12-20T05:15:56;6.80;99.90
22526;DHT22;11429;50.842;4.386;2023-12-20T05:18:22;6.80;99.90
22526;DHT22;11429;50.842;4.386;2023-12-20T05:20:49;6.80;99.90
22526;DHT22;11429;50.842;4.386;2023-12-20T05:23:15;7.00;99.90
22526;DHT22;11429;50.842;4.386;2023-12-20T05:25:41;6.90;99.90
22526;DHT22;11429;50.842;4.386;2023-12-20T05:28:07;6.90;99.90
22526;DHT22;11429;50.842;4.386;2023-12-20T05:30:33;6.80;99.90
22526;DHT22;11429;50.842;4.386;2023-12-20T05:32:58;6.60;99.90
22526;DHT22;11429;50.842;4.386;2023-12-20T05:35:24;6.50;99.90
22526;DHT22;11429;50.842;4.386;2023-12-20T05:37:50;6.40;99.90
22526;DHT22;11429;50.842;4.386;2023-12-20T05:40:16;6.50;99.90
22526;DHT22;11429;50.842;4.386;2023-12-20T05:42:41;6.80;99.90
22526;DHT22;11429;50.842;4.386;2023-12-20T05:45:08;6.80;99.90
22526;DHT22;11429;50.842;4.386;2023-12-20T05:47:34;6.70;99.90
22526;DHT22;11429;50.842;4.386;2023-12-20T05:50:03;6.70;99.90
22526;DHT22;11429;50.842;4.386;2023-12-20T05:52:29;6.90;99.90
22526;DHT22;11429;50.842;4.386;2023-12-20T05:54:55;6.60;99.90
22526;DHT22;11429;50.842;4.386;2023-12-20T05:57:23;6.50;99.90
22526;DHT22;11429;50.842;4.386;2023-12-20T05:59:49;6.40;99.90
22526;DHT22;11429;50.842;4.386;2023-12-20T06:02:14;6.50;99.90
22526;DHT22;11429;50.842;4.386;2023-12-20T06:04:42;6.50;99.90
22526;DHT22;11429;50.842;4.386;2023-12-20T06:07:11;6.40;99.90
22526;DHT22;11429;50.842;4.386;2023-12-20T06:09:36;6.30;99.90
22526;DHT22;11429;50.842;4.386;2023-12-20T06:12:02;6.20;99.90
22526;DHT22;11429;50.842;4.386;2023-12-20T06:14:28;6.20;99.90
22526;DHT22;11429;50.842;4.386;2023-12-20T06:16:56;6.20;99.90
22526;DHT22;11429;50.842;4.386;2023-12-20T06:19:22;6.40;99.90
22526;DHT22;11429;50.842;4.386;2023-12-20T06:21:48;6.30;99.90
22526;DHT22;11429;50.842;4.386;2023-12-20T06:24:14;6.30;99.90
22526;DHT22;11429;50.842;4.386;2023-12-20T06:26:40;6.30;99.90
22526;DHT22;11429;50.842;4.386;2023-12-20T06:29:06;6.40;99.90
22526;DHT22;11429;50.842;4.386;2023-12-20T06:31:38;6.30;99.90
22526;DHT22;11429;50.842;4.386;2023-12-20T06:34:04;6.40;99.90
22526;DHT22;11429;50.842;4.386;2023-12-20T06:36:33;6.60;99.90
22526;DHT22;11429;50.842;4.386;2023-12-20T06:39:04;6.60;99.90
22526;DHT22;11429;50.842;4.386;2023-12-20T06:41:30;6.70;99.90
22526;DHT22;11429;50.842;4.386;2023-12-20T06:43:56;6.60;99.90
22526;DHT22;11429;50.842;4.386;2023-12-20T06:46:22;6.60;99.90
22526;DHT22;11429;50.842;4.386;2023-12-20T06:48:47;6.50;99.90
22526;DHT22;11429;50.842;4.386;2023-12-20T06:51:15;6.50;99.90
22526;DHT22;11429;50.842;4.386;2023-12-20T06:53:42;6.40;99.90
22526;DHT22;11429;50.842;4.386;2023-12-20T06:56:10;6.30;99.90
22526;DHT22;11429;50.842;4.386;2023-12-20T06:58:35;6.20;99.90
22526;DHT22;11429;50.842;4.386;2023-12-20T07:01:03;6.10;99.90
22526;DHT22;11429;50.842;4.386;2023-12-20T07:03:29;6.00;99.90
22526;DHT22;11429;50.842;4.386;2023-12-20T07:05:55;5.90;99.90
22526;DHT22;11429;50.842;4.386;2023-12-20T07:08:21;6.00;99.90
22526;DHT22;11429;50.842;4.386;2023-12-20T07:10:47;6.10;99.90
22526;DHT22;11429;50.842;4.386;2023-12-20T07:13:13;6.00;99.90
22526;DHT22;11429;50.842;4.386;2023-12-20T07:15:39;6.00;99.90
22526;DHT22;11429;50.842;4.386;2023-12-20T07:18:06;6.00;99.90
22526;DHT22;11429;50.842;4.386;2023-12-20T07:20:32;6.00;99.90
22526;DHT22;11429;50.842;4.386;2023-12-20T07:22:59;6.10;99.90
22526;DHT22;11429;50.842;4.386;2023-12-20T07:25:25;6.10;99.90
22526;DHT22;11429;50.842;4.386;2023-12-20T07:27:51;6.10;99.90
22526;DHT22;11429;50.842;4.386;2023-12-20T07:30:17;6.00;99.90
22526;DHT22;11429;50.842;4.386;2023-12-20T07:32:42;6.00;99.90
22526;DHT22;11429;50.842;4.386;2023-12-20T07:35:08;6.00;99.90
22526;DHT22;11429;50.842;4.386;2023-12-20T07:37:34;6.10;99.90
22526;DHT22;11429;50.842;4.386;2023-12-20T07:40:00;6.00;99.90
22526;DHT22;11429;50.842;4.386;2023-12-20T07:42:25;6.00;99.90
22526;DHT22;11429;50.842;4.386;2023-12-20T07:44:51;5.90;99.90
22526;DHT22;11429;50.842;4.386;2023-12-20T07:47:19;6.00;99.90
22526;DHT22;11429;50.842;4.386;2023-12-20T07:50:06;6.00;99.90
22526;DHT22;11429;50.842;4.386;2023-12-20T07:52:32;5.90;99.90
22526;DHT22;11429;50.842;4.386;2023-12-20T07:54:58;5.90;99.90
22526;DHT22;11429;50.842;4.386;2023-12-20T07:57:24;5.90;99.90
22526;DHT22;11429;50.842;4.386;2023-12-20T07:59:51;5.80;99.90
22526;DHT22;11429;50.842;4.386;2023-12-20T08:02:17;5.80;99.90
22526;DHT22;11429;50.842;4.386;2023-12-20T08:04:45;6.10;99.90
22526;DHT22;11429;50.842;4.386;2023-12-20T08:07:12;6.00;99.90
22526;DHT22;11429;50.842;4.386;2023-12-20T08:09:38;5.90;99.90
22526;DHT22;11429;50.842;4.386;2023-12-20T08:12:04;5.90;99.90
22526;DHT22;11429;50.842;4.386;2023-12-20T08:14:30;6.00;99.90
22526;DHT22;11429;50.842;4.386;2023-12-20T08:16:57;6.00;99.90
22526;DHT22;11429;50.842;4.386;2023-12-20T08:19:22;6.10;99.90
22526;DHT22;11429;50.842;4.386;2023-12-20T08:21:48;6.30;99.90
22526;DHT22;11429;50.842;4.386;2023-12-20T08:24:14;6.30;99.90
22526;DHT22;11429;50.842;4.386;2023-12-20T08:26:40;6.20;99.90
22526;DHT22;11429;50.842;4.386;2023-12-20T08:29:06;6.20;99.90
22526;DHT22;11429;50.842;4.386;2023-12-20T08:31:31;6.20;99.90
22526;DHT22;11429;50.842;4.386;2023-12-20T08:33:57;6.20;99.90
22526;DHT22;11429;50.842;4.386;2023-12-20T08:36:23;6.20;99.90
22526;DHT22;11429;50.842;4.386;2023-12-20T08:38:49;6.20;99.90
22526;DHT22;11429;50.842;4.386;2023-12-20T08:41:19;6.30;99.90
22526;DHT22;11429;50.842;4.386;2023-12-20T08:43:46;6.30;99.90
22526;DHT22;11429;50.842;4.386;2023-12-20T08:46:11;6.30;99.90
22526;DHT22;11429;50.842;4.386;2023-12-20T08:48:37;6.30;99.90
22526;DHT22;11429;50.842;4.386;2023-12-20T08:51:06;6.40;99.90
22526;DHT22;11429;50.842;4.386;2023-12-20T08:53:34;6.30;99.90
22526;DHT22;11429;50.842;4.386;2023-12-20T08:55:59;6.20;99.90
22526;DHT22;11429;50.842;4.386;2023-12-20T08:58:27;6.40;99.90
22526;DHT22;11429;50.842;4.386;2023-12-20T09:00:53;6.50;99.90
22526;DHT22;11429;50.842;4.386;2023-12-20T09:03:19;6.60;99.90
22526;DHT22;11429;50.842;4.386;2023-12-20T09:05:45;6.60;99.90
22526;DHT22;11429;50.842;4.386;2023-12-20T09:08:11;6.60;99.90
22526;DHT22;11429;50.842;4.386;2023-12-20T09:10:37;6.60;99.90
22526;DHT22;11429;50.842;4.386;2023-12-20T09:13:03;6.80;99.90
22526;DHT22;11429;50.842;4.386;2023-12-20T09:15:31;6.70;99.90
22526;DHT22;11429;50.842;4.386;2023-12-20T09:17:59;6.70;99.90
22526;DHT22;11429;50.842;4.386;2023-12-20T09:20:27;6.80;99.90
22526;DHT22;11429;50.842;4.386;2023-12-20T09:22:55;7.00;99.90
22526;DHT22;11429;50.842;4.386;2023-12-20T09:25:20;7.10;99.90
22526;DHT22;11429;50.842;4.386;2023-12-20T09:27:47;7.10;99.90
22526;DHT22;11429;50.842;4.386;2023-12-20T09:30:14;7.20;99.90
22526;DHT22;11429;50.842;4.386;2023-12-20T09:32:40;7.60;99.90
22526;DHT22;11429;50.842;4.386;2023-12-20T09:35:06;7.80;99.90
22526;DHT22;11429;50.842;4.386;2023-12-20T09:37:34;7.80;99.90
22526;DHT22;11429;50.842;4.386;2023-12-20T09:40:00;8.20;99.90
22526;DHT22;11429;50.842;4.386;2023-12-20T09:45:16;8.40;99.90
22526;DHT22;11429;50.842;4.386;2023-12-20T09:47:52;8.60;99.90
22526;DHT22;11429;50.842;4.386;2023-12-20T09:50:38;8.60;99.90
22526;DHT22;11429;50.842;4.386;2023-12-20T09:53:08;8.70;99.90
22526;DHT22;11429;50.842;4.386;2023-12-20T09:56:06;9.00;99.90
22526;DHT22;11429;50.842;4.386;2023-12-20T09:58:36;9.00;99.90
22526;DHT22;11429;50.842;4.386;2023-12-20T10:01:07;8.90;99.90
22526;DHT22;11429;50.842;4.386;2023-12-20T10:03:34;8.80;99.90
22526;DHT22;11429;50.842;4.386;2023-12-20T10:06:00;8.40;99.90
22526;DHT22;11429;50.842;4.386;2023-12-20T10:08:26;8.40;99.90
22526;DHT22;11429;50.842;4.386;2023-12-20T10:10:52;8.30;99.90
22526;DHT22;11429;50.842;4.386;2023-12-20T10:13:18;8.10;99.90
22526;DHT22;11429;50.842;4.386;2023-12-20T10:15:44;8.10;99.90
22526;DHT22;11429;50.842;4.386;2023-12-20T10:18:11;8.00;99.90
22526;DHT22;11429;50.842;4.386;2023-12-20T10:20:37;8.10;99.90
22526;DHT22;11429;50.842;4.386;2023-12-20T10:23:03;8.40;99.90
22526;DHT22;11429;50.842;4.386;2023-12-20T10:25:29;8.60;99.90
22526;DHT22;11429;50.842;4.386;2023-12-20T10:28:15;8.70;99.90
22526;DHT22;11429;50.842;4.386;2023-12-20T10:30:46;8.70;99.90
22526;DHT22;11429;50.842;4.386;2023-12-20T10:33:12;8.80;99.90
22526;DHT22;11429;50.842;4.386;2023-12-20T10:35:39;8.70;99.90
22526;DHT22;11429;50.842;4.386;2023-12-20T10:38:07;8.60;99.90
22526;DHT22;11429;50.842;4.386;2023-12-20T10:40:36;8.70;99.90
22526;DHT22;11429;50.842;4.386;2023-12-20T10:43:03;8.50;99.90
22526;DHT22;11429;50.842;4.386;2023-12-20T10:45:29;8.50;99.90
22526;DHT22;11429;50.842;4.386;2023-12-20T10:47:56;8.40;99.90
22526;DHT22;11429;50.842;4.386;2023-12-20T10:50:25;8.40;99.90
22526;DHT22;11429;50.842;4.386;2023-12-20T10:52:52;8.40;99.90
22526;DHT22;11429;50.842;4.386;2023-12-20T10:55:25;8.70;99.90
22526;DHT22;11429;50.842;4.386;2023-12-20T10:57:51;8.70;99.90
22526;DHT22;11429;50.842;4.386;2023-12-20T11:00:18;8.60;99.90
22526;DHT22;11429;50.842;4.386;2023-12-20T11:02:48;8.70;99.90
22526;DHT22;11429;50.842;4.386;2023-12-20T11:08:09;8.90;99.90
22526;DHT22;11429;50.842;4.386;2023-12-20T11:14:00;8.80;99.90
22526;DHT22;11429;50.842;4.386;2023-12-20T11:16:27;8.80;99.90
22526;DHT22;11429;50.842;4.386;2023-12-20T11:18:53;8.80;99.90
22526;DHT22;11429;50.842;4.386;2023-12-20T11:21:20;8.90;99.90
22526;DHT22;11429;50.842;4.386;2023-12-20T11:23:46;8.60;99.90
22526;DHT22;11429;50.842;4.386;2023-12-20T11:26:15;8.60;99.90
22526;DHT22;11429;50.842;4.386;2023-12-20T11:28:43;8.60;99.90
22526;DHT22;11429;50.842;4.386;2023-12-20T11:31:14;8.60;99.90
22526;DHT22;11429;50.842;4.386;2023-12-20T11:33:40;8.70;99.90
22526;DHT22;11429;50.842;4.386;2023-12-20T11:36:25;8.80;99.90
22526;DHT22;11429;50.842;4.386;2023-12-20T11:38:56;8.70;99.90
22526;DHT22;11429;50.842;4.386;2023-12-20T11:41:23;8.70;99.90
22526;DHT22;11429;50.842;4.386;2023-12-20T11:43:56;8.70;99.90
22526;DHT22;11429;50.842;4.386;2023-12-20T11:46:23;8.70;99.90
22526;DHT22;11429;50.842;4.386;2023-12-20T11:48:49;8.70;99.90
22526;DHT22;11429;50.842;4.386;2023-12-20T11:51:16;8.70;99.90
22526;DHT22;11429;50.842;4.386;2023-12-20T11:53:41;8.90;99.90
22526;DHT22;11429;50.842;4.386;2023-12-20T11:56:10;8.90;99.90
22526;DHT22;11429;50.842;4.386;2023-12-20T11:58:38;8.90;99.90
22526;DHT22;11429;50.842;4.386;2023-12-20T12:01:05;8.80;99.90
22526;DHT22;11429;50.842;4.386;2023-12-20T12:03:33;8.90;99.90
22526;DHT22;11429;50.842;4.386;2023-12-20T12:05:58;8.80;99.90
22526;DHT22;11429;50.842;4.386;2023-12-20T12:08:26;9.00;99.90
22526;DHT22;11429;50.842;4.386;2023-12-20T12:10:52;9.10;99.90
22526;DHT22;11429;50.842;4.386;2023-12-20T12:13:19;9.30;99.90
22526;DHT22;11429;50.842;4.386;2023-12-20T12:15:48;9.30;99.90
22526;DHT22;11429;50.842;4.386;2023-12-20T12:18:17;9.30;99.90
22526;DHT22;11429;50.842;4.386;2023-12-20T12:20:45;9.00;99.90
22526;DHT22;11429;50.842;4.386;2023-12-20T12:23:11;9.00;99.90
22526;DHT22;11429;50.842;4.386;2023-12-20T12:25:37;9.10;99.90
22526;DHT22;11429;50.842;4.386;2023-12-20T12:28:03;9.10;99.90
22526;DHT22;11429;50.842;4.386;2023-12-20T12:30:29;9.20;99.90
22526;DHT22;11429;50.842;4.386;2023-12-20T12:32:56;9.10;99.90
22526;DHT22;11429;50.842;4.386;2023-12-20T12:35:23;9.30;99.90
22526;DHT22;11429;50.842;4.386;2023-12-20T12:37:49;9.20;99.90
22526;DHT22;11429;50.842;4.386;2023-12-20T12:40:16;9.10;99.90
22526;DHT22;11429;50.842;4.386;2023-12-20T12:42:44;9.30;99.90
22526;DHT22;11429;50.842;4.386;2023-12-20T12:45:10;9.10;99.90
22526;DHT22;11429;50.842;4.386;2023-12-20T12:47:37;9.10;99.90
22526;DHT22;11429;50.842;4.386;2023-12-20T12:50:03;9.10;99.90
22526;DHT22;11429;50.842;4.386;2023-12-20T12:52:30;9.20;99.90
22526;DHT22;11429;50.842;4.386;2023-12-20T12:54:56;9.20;99.90
22526;DHT22;11429;50.842;4.386;2023-12-20T12:57:26;9.20;99.90
22526;DHT22;11429;50.842;4.386;2023-12-20T12:59:52;9.20;99.90
22526;DHT22;11429;50.842;4.386;2023-12-20T13:02:17;9.40;99.90
22526;DHT22;11429;50.842;4.386;2023-12-20T13:04:44;9.50;99.90
22526;DHT22;11429;50.842;4.386;2023-12-20T13:07:11;9.30;99.90
22526;DHT22;11429;50.842;4.386;2023-12-20T13:09:37;9.30;99.90
22526;DHT22;11429;50.842;4.386;2023-12-20T13:12:03;9.20;99.90
22526;DHT22;11429;50.842;4.386;2023-12-20T13:14:33;9.10;99.90
22526;DHT22;11429;50.842;4.386;2023-12-20T13:17:00;9.20;99.90
22526;DHT22;11429;50.842;4.386;2023-12-20T13:19:26;9.20;99.90
22526;DHT22;11429;50.842;4.386;2023-12-20T13:21:55;9.20;99.90
22526;DHT22;11429;50.842;4.386;2023-12-20T13:24:20;9.20;99.90
22526;DHT22;11429;50.842;4.386;2023-12-20T13:26:46;9.30;99.90
22526;DHT22;11429;50.842;4.386;2023-12-20T13:29:12;9.30;99.90
22526;DHT22;11429;50.842;4.386;2023-12-20T13:31:38;9.50;99.90
22526;DHT22;11429;50.842;4.386;2023-12-20T13:34:06;9.40;99.90
22526;DHT22;11429;50.842;4.386;2023-12-20T13:36:32;9.40;99.90
22526;DHT22;11429;50.842;4.386;2023-12-20T13:38:57;9.50;99.90
22526;DHT22;11429;50.842;4.386;2023-12-20T13:41:23;9.40;99.90
22526;DHT22;11429;50.842;4.386;2023-12-20T13:43:49;9.40;99.90
22526;DHT22;11429;50.842;4.386;2023-12-20T13:46:15;9.40;99.90
22526;DHT22;11429;50.842;4.386;2023-12-20T13:48:43;9.40;99.90
22526;DHT22;11429;50.842;4.386;2023-12-20T13:51:12;9.60;99.90
22526;DHT22;11429;50.842;4.386;2023-12-20T13:53:40;9.60;99.90
22526;DHT22;11429;50.842;4.386;2023-12-20T13:56:06;9.50;99.90
22526;DHT22;11429;50.842;4.386;2023-12-20T13:58:32;9.60;99.90
22526;DHT22;11429;50.842;4.386;2023-12-20T14:01:01;9.50;99.90
22526;DHT22;11429;50.842;4.386;2023-12-20T14:03:27;9.60;99.90
22526;DHT22;11429;50.842;4.386;2023-12-20T14:05:53;9.60;99.90
22526;DHT22;11429;50.842;4.386;2023-12-20T14:08:19;9.60;99.90
22526;DHT22;11429;50.842;4.386;2023-12-20T14:10:45;9.60;99.90
22526;DHT22;11429;50.842;4.386;2023-12-20T14:13:13;9.40;99.90
22526;DHT22;11429;50.842;4.386;2023-12-20T14:15:38;9.50;99.90
22526;DHT22;11429;50.842;4.386;2023-12-20T14:18:05;9.50;99.90
22526;DHT22;11429;50.842;4.386;2023-12-20T14:20:34;9.60;99.90
22526;DHT22;11429;50.842;4.386;2023-12-20T14:23:04;9.60;99.90
22526;DHT22;11429;50.842;4.386;2023-12-20T14:25:29;9.60;99.90
22526;DHT22;11429;50.842;4.386;2023-12-20T14:27:56;9.60;99.90
22526;DHT22;11429;50.842;4.386;2023-12-20T14:30:23;9.70;99.90
22526;DHT22;11429;50.842;4.386;2023-12-20T14:32:48;9.80;99.90
22526;DHT22;11429;50.842;4.386;2023-12-20T14:35:14;10.00;99.90
22526;DHT22;11429;50.842;4.386;2023-12-20T14:37:40;9.90;99.90
22526;DHT22;11429;50.842;4.386;2023-12-20T14:40:07;9.70;99.90
22526;DHT22;11429;50.842;4.386;2023-12-20T14:42:41;9.50;99.90
22526;DHT22;11429;50.842;4.386;2023-12-20T14:45:07;9.60;99.90
22526;DHT22;11429;50.842;4.386;2023-12-20T14:47:33;9.70;99.90
22526;DHT22;11429;50.842;4.386;2023-12-20T14:49:59;9.60;99.90
22526;DHT22;11429;50.842;4.386;2023-12-20T14:52:25;9.70;99.90
22526;DHT22;11429;50.842;4.386;2023-12-20T14:54:51;9.60;99.90
22526;DHT22;11429;50.842;4.386;2023-12-20T14:57:16;9.70;99.90
22526;DHT22;11429;50.842;4.386;2023-12-20T14:59:43;9.70;99.90
22526;DHT22;11429;50.842;4.386;2023-12-20T15:02:09;9.60;99.90
22526;DHT22;11429;50.842;4.386;2023-12-20T15:04:35;9.70;99.90
22526;DHT22;11429;50.842;4.386;2023-12-20T15:07:02;9.70;99.90
22526;DHT22;11429;50.842;4.386;2023-12-20T15:09:31;9.80;99.90
22526;DHT22;11429;50.842;4.386;2023-12-20T15:12:00;9.90;99.90
22526;DHT22;11429;50.842;4.386;2023-12-20T15:14:26;10.00;99.90
22526;DHT22;11429;50.842;4.386;2023-12-20T15:16:54;10.10;99.90
22526;DHT22;11429;50.842;4.386;2023-12-20T15:19:21;10.00;99.90
22526;DHT22;11429;50.842;4.386;2023-12-20T15:21:47;9.90;99.90
22526;DHT22;11429;50.842;4.386;2023-12-20T15:24:13;9.90;99.90
22526;DHT22;11429;50.842;4.386;2023-12-20T15:26:41;9.90;99.90
22526;DHT22;11429;50.842;4.386;2023-12-20T15:29:08;9.80;99.90
22526;DHT22;11429;50.842;4.386;2023-12-20T15:31:36;9.70;99.90
22526;DHT22;11429;50.842;4.386;2023-12-20T15:34:03;9.70;99.90
22526;DHT22;11429;50.842;4.386;2023-12-20T15:36:31;9.80;99.90
22526;DHT22;11429;50.842;4.386;2023-12-20T15:38:57;9.70;99.90
22526;DHT22;11429;50.842;4.386;2023-12-20T15:41:23;9.70;99.90
22526;DHT22;11429;50.842;4.386;2023-12-20T15:43:49;9.80;99.90
22526;DHT22;11429;50.842;4.386;2023-12-20T15:46:15;9.90;99.90
22526;DHT22;11429;50.842;4.386;2023-12-20T15:48:41;9.80;99.90
22526;DHT22;11429;50.842;4.386;2023-12-20T15:51:08;9.80;99.90